createdAt,value
2019-05-12T00:01:58.737Z,9.30
2019-05-12T00:04:28.595Z,9.30
2019-05-12T00:06:58.640Z,9.40
2019-05-12T00:09:28.544Z,9.40
2019-05-12T00:11:59.105Z,9.20
2019-05-12T00:14:28.942Z,9.30
2019-05-12T00:16:58.602Z,9.20
2019-05-12T00:19:28.659Z,9.30
2019-05-12T00:21:58.918Z,9.30
2019-05-12T00:24:28.565Z,9.30
2019-05-12T00:26:59.906Z,9.20
2019-05-12T00:29:29.568Z,9.20
2019-05-12T00:31:59.373Z,9.10
2019-05-12T00:34:29.052Z,9.20
2019-05-12T00:36:58.920Z,9.00
2019-05-12T00:39:28.598Z,8.80
2019-05-12T00:41:58.791Z,8.80
2019-05-12T00:44:28.671Z,8.70
2019-05-12T00:46:59.001Z,8.80
2019-05-12T00:49:29.085Z,8.80
2019-05-12T00:51:59.135Z,8.90
2019-05-12T00:54:28.811Z,8.70
2019-05-12T00:56:58.667Z,8.70
2019-05-12T00:59:28.391Z,8.60
2019-05-12T01:01:58.645Z,8.60
2019-05-12T01:04:29.106Z,8.80
2019-05-12T01:06:59.088Z,8.80
2019-05-12T01:09:28.884Z,8.80
2019-05-12T01:11:59.077Z,8.70
2019-05-12T01:14:28.744Z,8.70
2019-05-12T01:16:58.504Z,8.80
2019-05-12T01:19:28.870Z,8.80
2019-05-12T01:21:58.881Z,8.70
2019-05-12T01:24:28.535Z,8.70
2019-05-12T01:26:58.398Z,8.70
2019-05-12T01:29:28.334Z,8.70
2019-05-12T01:32:02.366Z,8.60
2019-05-12T01:34:32.028Z,8.60
2019-05-12T01:37:15.493Z,8.50
2019-05-12T01:39:45.151Z,8.30
2019-05-12T01:42:14.867Z,8.30
2019-05-12T01:44:44.523Z,8.30
2019-05-12T01:47:14.172Z,8.30
2019-05-12T01:49:43.831Z,8.40
2019-05-12T01:52:13.551Z,8.40
2019-05-12T01:54:43.211Z,8.40
2019-05-12T01:57:12.858Z,8.50
2019-05-12T01:59:44.064Z,8.50
2019-05-12T02:02:13.726Z,8.20
2019-05-12T02:05:01.249Z,8.20
2019-05-12T02:07:32.603Z,8.30
2019-05-12T02:10:02.333Z,8.10
2019-05-12T02:12:31.995Z,8.10
2019-05-12T02:15:01.657Z,8.10
2019-05-12T02:17:31.310Z,8.40
2019-05-12T02:20:00.976Z,8.50
2019-05-12T02:22:30.659Z,8.60
2019-05-12T02:25:00.292Z,8.70
2019-05-12T02:27:29.961Z,8.60
2019-05-12T02:29:59.622Z,8.60
2019-05-12T02:32:37.608Z,8.60
2019-05-12T02:35:00.803Z,8.60
2019-05-12T02:37:30.542Z,8.60
2019-05-12T02:40:00.192Z,8.50
2019-05-12T02:42:31.138Z,8.20
2019-05-12T02:45:00.875Z,8.10
2019-05-12T02:47:30.529Z,8.00
2019-05-12T02:50:00.179Z,7.90
2019-05-12T02:52:29.850Z,8.00
2019-05-12T02:55:00.919Z,8.20
2019-05-12T02:57:34.414Z,8.30
2019-05-12T03:00:07.638Z,8.00
2019-05-12T03:03:05.783Z,8.00
2019-05-12T03:05:38.555Z,8.10
2019-05-12T03:08:08.313Z,8.00
2019-05-12T03:10:37.973Z,7.90
2019-05-12T03:13:07.616Z,8.00
2019-05-12T03:15:37.740Z,8.00
2019-05-12T03:18:07.771Z,8.10
2019-05-12T03:20:37.674Z,8.00
2019-05-12T03:23:07.356Z,8.10
2019-05-12T03:25:37.507Z,8.30
2019-05-12T03:28:09.139Z,8.30
2019-05-12T03:30:40.704Z,8.40
2019-05-12T03:33:12.125Z,8.40
2019-05-12T03:35:50.740Z,8.40
2019-05-12T03:38:14.864Z,8.50
2019-05-12T03:40:45.279Z,8.50
2019-05-12T03:43:17.212Z,8.40
2019-05-12T03:45:46.858Z,8.40
2019-05-12T03:48:16.534Z,8.60
2019-05-12T03:50:46.458Z,8.60
2019-05-12T03:53:16.416Z,8.60
2019-05-12T03:55:47.198Z,8.60
2019-05-12T03:58:17.224Z,8.80
2019-05-12T04:00:46.995Z,8.80
2019-05-12T04:03:16.632Z,8.70
2019-05-12T04:05:46.297Z,8.50
2019-05-12T04:08:16.267Z,8.40
2019-05-12T04:10:46.210Z,8.50
2019-05-12T04:13:16.001Z,8.50
2019-05-12T04:15:46.110Z,8.60
2019-05-12T04:18:16.683Z,8.60
2019-05-12T04:20:47.073Z,8.50
2019-05-12T04:23:16.716Z,8.50
2019-05-12T04:25:52.780Z,8.40
2019-05-12T04:28:17.765Z,8.40
2019-05-12T04:30:47.494Z,8.60
2019-05-12T04:33:17.144Z,8.70
2019-05-12T04:35:46.825Z,8.50
2019-05-12T04:38:16.474Z,8.40
2019-05-12T04:40:46.133Z,8.50
2019-05-12T04:43:15.785Z,8.70
2019-05-12T04:45:45.598Z,8.80
2019-05-12T04:48:20.326Z,9.00
2019-05-12T04:50:46.647Z,9.00
2019-05-12T04:53:16.415Z,9.00
2019-05-12T04:56:05.455Z,8.70
2019-05-12T04:58:18.981Z,8.70
2019-05-12T05:00:48.629Z,8.70
2019-05-12T05:03:18.275Z,8.60
2019-05-12T05:05:47.937Z,8.60
2019-05-12T05:08:19.887Z,8.70
2019-05-12T05:10:49.099Z,8.80
2019-05-12T05:13:18.757Z,8.60
2019-05-12T05:15:48.521Z,8.60
2019-05-12T05:18:18.168Z,8.60
2019-05-12T05:20:47.840Z,8.60
2019-05-12T05:23:17.566Z,8.50
2019-05-12T05:25:47.207Z,8.50
2019-05-12T05:28:16.867Z,8.50
2019-05-12T05:30:46.549Z,8.50
2019-05-12T05:33:16.192Z,8.50
2019-05-12T05:35:45.860Z,8.70
2019-05-12T05:38:20.506Z,8.70
2019-05-12T05:40:47.012Z,8.60
2019-05-12T05:43:18.552Z,8.60
2019-05-12T05:45:48.047Z,8.60
2019-05-12T05:48:17.696Z,8.50
2019-05-12T05:50:47.344Z,8.60
2019-05-12T05:53:19.457Z,8.50
2019-05-12T05:55:50.313Z,8.60
2019-05-12T05:58:19.796Z,8.80
2019-05-12T06:00:54.798Z,8.90
2019-05-12T06:03:26.166Z,8.90
2019-05-12T06:05:53.464Z,8.70
2019-05-12T06:08:23.762Z,8.60
2019-05-12T06:10:53.932Z,8.80
2019-05-12T06:13:27.366Z,8.70
2019-05-12T06:15:54.905Z,8.60
2019-05-12T06:18:24.569Z,8.60
2019-05-12T06:20:54.289Z,8.80
2019-05-12T06:23:24.133Z,8.90
2019-05-12T06:25:54.920Z,8.80
2019-05-12T06:28:24.629Z,8.70
2019-05-12T06:30:54.914Z,8.80
2019-05-12T06:33:31.881Z,8.70
2019-05-12T06:35:57.039Z,8.60
2019-05-12T06:38:30.955Z,8.60
2019-05-12T06:40:58.071Z,8.50
2019-05-12T06:43:29.112Z,8.70
2019-05-12T06:46:00.611Z,8.90
2019-05-12T06:48:33.221Z,8.80
2019-05-12T06:51:04.033Z,8.60
2019-05-12T06:53:33.807Z,8.80
2019-05-12T06:56:04.445Z,9.00
2019-05-12T06:58:34.589Z,8.90
2019-05-12T07:01:10.156Z,8.70
2019-05-12T07:03:37.290Z,8.50
2019-05-12T07:06:09.084Z,8.60
2019-05-12T07:08:38.649Z,8.60
2019-05-12T07:11:08.423Z,8.60
2019-05-12T07:13:38.068Z,8.80
2019-05-12T07:16:19.895Z,8.70
2019-05-12T07:18:47.741Z,8.80
2019-05-12T07:21:20.253Z,8.70
2019-05-12T07:23:53.329Z,8.80
2019-05-12T07:26:23.507Z,8.80
2019-05-12T07:28:54.099Z,8.80
2019-05-12T07:31:23.876Z,8.70
2019-05-12T07:33:54.177Z,8.70
2019-05-12T07:36:25.341Z,9.00
2019-05-12T07:39:03.902Z,9.20
2019-05-12T07:41:34.051Z,9.20
2019-05-12T07:44:04.132Z,9.30
2019-05-12T07:46:34.353Z,9.20
2019-05-12T07:49:04.105Z,9.30
2019-05-12T07:51:38.304Z,9.10
2019-05-12T07:54:05.158Z,9.00
2019-05-12T07:56:35.871Z,9.30
2019-05-12T07:59:05.653Z,9.50
2019-05-12T08:01:44.099Z,9.60
2019-05-12T08:04:06.671Z,9.70
2019-05-12T08:06:41.597Z,9.70
2019-05-12T08:09:08.391Z,9.60
2019-05-12T08:11:39.030Z,9.60
2019-05-12T08:14:13.834Z,9.60
2019-05-12T08:16:40.085Z,9.80
2019-05-12T08:19:14.936Z,9.90
2019-05-12T08:21:43.925Z,9.70
2019-05-12T08:24:14.311Z,10.00
2019-05-12T08:26:44.150Z,9.90
2019-05-12T08:29:16.900Z,10.00
2019-05-12T08:31:45.171Z,10.00
2019-05-12T08:34:14.917Z,9.70
2019-05-12T08:36:52.937Z,9.90
2019-05-12T08:39:21.222Z,10.20
2019-05-12T08:41:47.413Z,10.10
2019-05-12T08:44:17.637Z,10.40
2019-05-12T08:46:51.801Z,10.50
2019-05-12T08:49:18.798Z,10.70
2019-05-12T08:51:49.609Z,10.90
2019-05-12T08:54:19.836Z,10.90
2019-05-12T08:56:51.003Z,10.70
2019-05-12T08:59:24.984Z,10.70
2019-05-12T09:01:54.088Z,10.80
2019-05-12T09:04:25.998Z,11.00
2019-05-12T09:06:59.685Z,11.10
2019-05-12T09:09:27.312Z,10.70
2019-05-12T09:11:57.176Z,10.70
2019-05-12T09:14:27.305Z,10.80
2019-05-12T09:17:02.175Z,11.10
2019-05-12T09:19:28.363Z,10.90
2019-05-12T09:21:59.243Z,10.80
2019-05-12T09:24:28.903Z,11.00
2019-05-12T09:26:58.978Z,11.30
2019-05-12T09:29:29.952Z,11.30
2019-05-12T09:32:07.390Z,11.00
2019-05-12T09:34:31.093Z,11.30
2019-05-12T09:37:01.112Z,11.30
2019-05-12T09:39:34.094Z,11.50
2019-05-12T09:42:03.787Z,11.70
2019-05-12T09:44:35.116Z,11.90
2019-05-12T09:47:07.617Z,11.60
2019-05-12T09:49:39.461Z,11.90
2019-05-12T09:52:07.628Z,12.10
2019-05-12T09:54:40.798Z,12.20
2019-05-12T09:57:08.673Z,12.30
2019-05-12T09:59:38.475Z,12.50
2019-05-12T10:02:10.485Z,12.60
2019-05-12T10:04:39.523Z,12.70
2019-05-12T10:07:09.335Z,12.40
2019-05-12T10:09:38.985Z,12.60
2019-05-12T10:12:08.649Z,12.50
2019-05-12T10:14:40.801Z,12.60
2019-05-12T10:17:10.166Z,12.80
2019-05-12T10:19:39.814Z,13.30
2019-05-12T10:22:09.473Z,13.50
2019-05-12T10:24:43.024Z,13.30
2019-05-12T10:27:13.773Z,13.30
2019-05-12T10:29:43.725Z,13.40
2019-05-12T10:32:13.580Z,13.20
2019-05-12T10:34:44.358Z,13.10
2019-05-12T10:37:19.247Z,13.10
2019-05-12T10:39:47.100Z,13.20
2019-05-12T10:42:16.768Z,13.20
2019-05-12T10:44:46.433Z,13.20
2019-05-12T10:47:16.085Z,13.60
2019-05-12T10:49:45.759Z,13.50
2019-05-12T10:52:15.422Z,13.50
2019-05-12T10:54:45.069Z,13.00
2019-05-12T10:57:16.275Z,13.10
2019-05-12T10:59:48.665Z,13.40
2019-05-12T11:02:26.625Z,13.30
2019-05-12T11:04:54.149Z,13.40
2019-05-12T11:07:28.014Z,13.50
2019-05-12T11:09:55.506Z,13.80
2019-05-12T11:12:29.005Z,13.80
2019-05-12T11:15:01.245Z,13.50
2019-05-12T11:17:40.274Z,13.20
2019-05-12T11:20:10.188Z,13.50
2019-05-12T11:22:39.846Z,13.70
2019-05-12T11:25:09.509Z,13.70
2019-05-12T11:27:39.178Z,13.40
2019-05-12T11:30:08.984Z,13.40
2019-05-12T11:32:38.628Z,13.70
2019-05-12T11:35:08.509Z,13.40
2019-05-12T11:37:38.165Z,13.40
2019-05-12T11:40:08.162Z,13.50
2019-05-12T11:42:37.811Z,13.70
2019-05-12T11:45:09.022Z,13.50
2019-05-12T11:47:38.664Z,13.70
2019-05-12T11:50:09.996Z,14.00
2019-05-12T11:52:39.905Z,14.10
2019-05-12T11:55:09.755Z,14.20
2019-05-12T11:57:39.440Z,14.20
2019-05-12T12:00:13.622Z,14.60
2019-05-12T12:02:43.765Z,14.60
2019-05-12T12:05:13.918Z,14.40
2019-05-12T12:07:50.674Z,14.70
2019-05-12T12:10:15.262Z,14.70
2019-05-12T12:12:49.148Z,14.80
2019-05-12T12:15:20.249Z,15.00
2019-05-12T12:17:48.713Z,15.40
2019-05-12T12:20:22.426Z,15.60
2019-05-12T12:22:49.981Z,15.70
2019-05-12T12:25:23.286Z,15.50
2019-05-12T12:27:53.747Z,15.50
2019-05-12T12:30:23.816Z,16.00
2019-05-12T12:33:00.167Z,16.60
2019-05-12T12:35:26.574Z,16.50
2019-05-12T12:37:57.480Z,16.40
2019-05-12T12:40:28.803Z,16.60
2019-05-12T12:42:58.611Z,16.70
2019-05-12T12:45:45.529Z,17.00
2019-05-12T12:48:19.401Z,16.50
2019-05-12T12:50:47.607Z,16.90
2019-05-12T12:53:17.338Z,16.50
2019-05-12T12:55:47.003Z,16.10
2019-05-12T12:58:21.263Z,16.40
2019-05-12T13:00:53.755Z,16.80
2019-05-12T13:03:24.527Z,16.90
2019-05-12T13:05:50.796Z,17.40
2019-05-12T13:08:22.348Z,17.80
2019-05-12T13:10:54.123Z,18.50
2019-05-12T13:13:24.535Z,19.10
2019-05-12T13:15:54.447Z,20.10
2019-05-12T13:18:32.630Z,20.30
2019-05-12T13:20:58.045Z,19.00
2019-05-12T13:23:36.950Z,20.30
2019-05-12T13:25:58.246Z,22.00
2019-05-12T13:28:27.911Z,22.50
2019-05-12T13:31:07.965Z,23.40
2019-05-12T13:33:29.527Z,24.00
2019-05-12T13:35:59.769Z,24.30
2019-05-12T13:38:30.543Z,26.00
2019-05-12T13:41:04.236Z,26.90
2019-05-12T13:43:35.442Z,26.40
2019-05-12T13:46:07.275Z,23.60
2019-05-12T13:48:37.528Z,21.00
2019-05-12T13:51:12.603Z,23.60
2019-05-12T13:53:46.344Z,25.20
2019-05-12T13:56:13.664Z,26.50
2019-05-12T13:58:45.935Z,26.00
2019-05-12T14:01:20.239Z,27.30
2019-05-12T14:03:50.633Z,27.30
2019-05-12T14:06:23.026Z,27.70
2019-05-12T14:08:53.612Z,27.50
2019-05-12T14:11:24.488Z,28.20
2019-05-12T14:13:54.437Z,28.80
2019-05-12T14:16:24.367Z,29.90
2019-05-12T14:18:56.893Z,31.30
2019-05-12T14:21:27.483Z,30.80
2019-05-12T14:23:58.951Z,28.90
2019-05-12T14:26:28.894Z,27.90
2019-05-12T14:29:01.200Z,28.20
2019-05-12T14:31:36.323Z,29.80
2019-05-12T14:34:04.299Z,30.30
2019-05-12T14:36:34.279Z,31.30
2019-05-12T14:39:10.142Z,29.80
2019-05-12T14:41:44.577Z,28.00
2019-05-12T14:44:13.563Z,28.80
2019-05-12T14:46:46.309Z,29.40
2019-05-12T14:49:14.756Z,26.00
2019-05-12T14:51:45.355Z,26.80
2019-05-12T14:54:15.286Z,27.50
2019-05-12T14:56:53.013Z,25.00
2019-05-12T14:59:17.185Z,23.40
2019-05-12T15:01:57.389Z,21.30
2019-05-12T15:04:24.872Z,20.80
2019-05-12T15:06:50.747Z,20.10
2019-05-12T15:09:21.927Z,19.30
2019-05-12T15:11:52.338Z,19.90
2019-05-12T15:14:24.555Z,22.40
2019-05-12T15:16:55.030Z,20.60
2019-05-12T15:19:27.795Z,19.50
2019-05-12T15:22:01.606Z,22.00
2019-05-12T15:24:28.622Z,24.30
2019-05-12T15:27:00.684Z,23.10
2019-05-12T15:29:33.662Z,22.80
2019-05-12T15:32:04.058Z,21.70
2019-05-12T15:34:33.917Z,21.40
2019-05-12T15:37:04.125Z,20.50
2019-05-12T15:39:34.003Z,19.70
2019-05-12T15:42:05.224Z,19.10
2019-05-12T15:44:37.008Z,18.20
2019-05-12T15:47:06.266Z,17.80
2019-05-12T15:49:37.051Z,18.50
2019-05-12T15:52:06.779Z,19.50
2019-05-12T15:54:45.636Z,19.80
2019-05-12T15:57:09.347Z,19.70
2019-05-12T15:59:38.994Z,19.70
2019-05-12T16:02:14.632Z,19.60
2019-05-12T16:04:42.817Z,19.60
2019-05-12T16:07:14.055Z,19.00
2019-05-12T16:09:45.436Z,19.10
2019-05-12T16:12:19.927Z,19.20
2019-05-12T16:14:45.749Z,19.30
2019-05-12T16:17:18.943Z,19.00
2019-05-12T16:19:47.746Z,18.90
2019-05-12T16:22:17.410Z,19.10
2019-05-12T16:24:48.840Z,19.70
2019-05-12T16:27:18.459Z,20.00
2019-05-12T16:29:50.044Z,19.50
2019-05-12T16:32:26.783Z,19.30
2019-05-12T16:34:50.893Z,19.00
2019-05-12T16:37:25.122Z,18.40
2019-05-12T16:39:54.029Z,18.20
2019-05-12T16:42:23.690Z,18.60
2019-05-12T16:44:56.184Z,18.80
2019-05-12T16:47:29.081Z,18.80
2019-05-12T16:49:56.154Z,18.60
2019-05-12T16:52:25.815Z,18.20
2019-05-12T16:54:55.468Z,17.80
2019-05-12T16:57:26.122Z,17.50
2019-05-12T17:00:02.359Z,17.60
2019-05-12T17:02:38.470Z,17.80
2019-05-12T17:04:58.543Z,17.40
2019-05-12T17:07:28.216Z,17.50
2019-05-12T17:10:02.866Z,17.40
2019-05-12T17:12:32.013Z,16.90
2019-05-12T17:15:00.640Z,16.80
2019-05-12T17:17:30.289Z,16.70
2019-05-12T17:20:01.122Z,16.60
2019-05-12T17:22:30.774Z,16.50
2019-05-12T17:25:00.449Z,16.40
2019-05-12T17:27:30.099Z,16.40
2019-05-12T17:29:59.772Z,16.40
2019-05-12T17:32:29.433Z,16.30
2019-05-12T17:34:59.163Z,16.10
2019-05-12T17:37:31.349Z,16.00
2019-05-12T17:40:00.205Z,15.80
2019-05-12T17:42:29.941Z,15.80
2019-05-12T17:44:59.586Z,15.50
2019-05-12T17:47:32.055Z,15.50
2019-05-12T17:50:08.421Z,15.50
2019-05-12T17:52:33.726Z,15.20
2019-05-12T17:55:10.738Z,15.30
2019-05-12T17:57:36.115Z,15.20
2019-05-12T18:00:10.656Z,15.10
2019-05-12T18:02:39.951Z,15.20
2019-05-12T18:05:12.315Z,15.20
2019-05-12T18:07:41.510Z,15.20
2019-05-12T18:10:13.443Z,15.10
2019-05-12T18:12:45.112Z,15.10
2019-05-12T18:15:15.854Z,14.80
2019-05-12T18:17:49.863Z,14.80
2019-05-12T18:20:18.080Z,14.60
2019-05-12T18:22:47.806Z,14.50
2019-05-12T18:25:21.967Z,14.40
2019-05-12T18:27:50.983Z,14.30
2019-05-12T18:30:20.876Z,14.20
2019-05-12T18:32:54.978Z,14.10
2019-05-12T18:35:21.911Z,14.00
2019-05-12T18:37:54.004Z,13.90
2019-05-12T18:40:24.443Z,13.90
2019-05-12T18:42:54.334Z,13.80
2019-05-12T18:45:24.136Z,13.90
2019-05-12T18:47:53.972Z,14.00
2019-05-12T18:50:27.111Z,13.90
2019-05-12T18:52:56.417Z,13.80
2019-05-12T18:55:29.405Z,13.80
2019-05-12T18:57:57.509Z,13.70
2019-05-12T19:00:27.233Z,13.70
2019-05-12T19:02:59.628Z,13.60
2019-05-12T19:05:30.848Z,13.50
2019-05-12T19:07:59.715Z,13.40
2019-05-12T19:10:29.406Z,13.50
2019-05-12T19:13:01.931Z,13.50
2019-05-12T19:15:31.313Z,13.60
2019-05-12T19:18:03.723Z,13.40
2019-05-12T19:20:36.188Z,13.30
2019-05-12T19:23:04.993Z,13.50
2019-05-12T19:25:35.804Z,13.40
2019-05-12T19:28:10.352Z,13.50
2019-05-12T19:30:37.512Z,13.40
2019-05-12T19:33:10.682Z,13.10
2019-05-12T19:35:38.692Z,13.00
2019-05-12T19:38:08.388Z,12.90
2019-05-12T19:40:38.081Z,12.90
2019-05-12T19:43:08.461Z,13.00
2019-05-12T19:45:38.248Z,12.90
2019-05-12T19:48:07.943Z,12.70
2019-05-12T19:50:37.680Z,12.50
2019-05-12T19:53:10.267Z,12.40
2019-05-12T19:55:38.707Z,12.50
2019-05-12T19:58:12.607Z,12.50
2019-05-12T20:00:39.724Z,12.40
2019-05-12T20:03:09.539Z,12.40
2019-05-12T20:05:40.624Z,12.60
2019-05-12T20:08:10.351Z,12.60
2019-05-12T20:10:44.670Z,12.50
2019-05-12T20:13:13.660Z,12.50
2019-05-12T20:15:43.776Z,12.70
2019-05-12T20:18:14.688Z,12.40
2019-05-12T20:20:44.939Z,12.30
2019-05-12T20:23:14.786Z,12.40
2019-05-12T20:25:44.508Z,12.20
2019-05-12T20:28:14.744Z,12.10
2019-05-12T20:30:44.511Z,12.20
2019-05-12T20:33:14.244Z,12.20
2019-05-12T20:35:49.093Z,12.30
2019-05-12T20:38:16.347Z,12.10
2019-05-12T20:40:46.003Z,12.00
2019-05-12T20:43:15.652Z,11.90
2019-05-12T20:45:45.881Z,11.80
2019-05-12T20:48:19.658Z,11.80
2019-05-12T20:50:47.126Z,11.80
2019-05-12T20:53:25.272Z,11.90
2019-05-12T20:55:49.951Z,11.80
2019-05-12T20:58:19.769Z,11.90
2019-05-12T21:00:50.769Z,11.70
2019-05-12T21:03:20.763Z,11.50
2019-05-12T21:05:56.496Z,11.50
2019-05-12T21:08:23.675Z,11.70
2019-05-12T21:10:54.129Z,11.60
2019-05-12T21:13:27.163Z,11.60
2019-05-12T21:15:55.523Z,11.50
2019-05-12T21:18:25.194Z,11.50
2019-05-12T21:20:55.043Z,11.50
2019-05-12T21:23:24.793Z,11.30
2019-05-12T21:25:58.130Z,11.40
2019-05-12T21:28:25.835Z,11.20
2019-05-12T21:30:55.982Z,11.20
2019-05-12T21:33:25.745Z,11.10
2019-05-12T21:35:55.401Z,11.20
2019-05-12T21:38:29.375Z,11.10
2019-05-12T21:40:56.459Z,11.20
2019-05-12T21:43:26.118Z,11.10
2019-05-12T21:45:55.770Z,10.90
2019-05-12T21:48:28.646Z,10.90
2019-05-12T21:50:56.828Z,10.90
2019-05-12T21:53:26.479Z,10.80
2019-05-12T21:56:04.085Z,10.70
2019-05-12T21:58:27.667Z,10.80
2019-05-12T22:01:05.152Z,10.90
2019-05-12T22:03:33.606Z,10.70
2019-05-12T22:06:14.837Z,10.90
2019-05-12T22:08:34.745Z,11.10
2019-05-12T22:11:09.496Z,11.00
2019-05-12T22:13:36.308Z,10.90
2019-05-12T22:16:07.588Z,10.80
2019-05-12T22:18:37.229Z,10.80
2019-05-12T22:21:07.226Z,11.00
2019-05-12T22:23:36.927Z,11.00
2019-05-12T22:26:06.609Z,10.70
2019-05-12T22:28:40.496Z,10.40
2019-05-12T22:31:07.659Z,10.60
2019-05-12T22:33:40.931Z,10.70
2019-05-12T22:36:24.456Z,10.70
2019-05-12T22:38:40.110Z,10.60
2019-05-12T22:41:09.848Z,10.50
2019-05-12T22:43:41.526Z,10.40
2019-05-12T22:46:10.899Z,10.20
2019-05-12T22:48:40.803Z,10.10
2019-05-12T22:51:15.207Z,10.00
2019-05-12T22:53:43.512Z,10.00
2019-05-12T22:56:17.810Z,9.90
2019-05-12T22:58:44.610Z,9.90
2019-05-12T23:01:14.594Z,9.90
2019-05-12T23:03:51.373Z,10.10
2019-05-12T23:06:23.690Z,10.30
2019-05-12T23:08:49.240Z,10.30
2019-05-12T23:11:23.712Z,10.50
2019-05-12T23:13:53.356Z,10.50
2019-05-12T23:16:26.141Z,10.40
2019-05-12T23:18:53.743Z,10.40
2019-05-12T23:21:24.211Z,10.60
2019-05-12T23:23:57.467Z,10.20
2019-05-12T23:26:26.027Z,10.00
2019-05-12T23:28:55.678Z,9.90
2019-05-12T23:31:30.007Z,9.90
2019-05-12T23:33:56.714Z,9.70
2019-05-12T23:36:35.639Z,9.70
2019-05-12T23:39:00.365Z,9.80
2019-05-12T23:41:29.217Z,9.70
2019-05-12T23:43:58.946Z,9.60
2019-05-12T23:46:28.612Z,9.60
2019-05-12T23:48:58.248Z,9.60
2019-05-12T23:51:29.297Z,9.70
2019-05-12T23:53:58.965Z,9.70
2019-05-12T23:56:28.704Z,9.50
2019-05-12T23:58:58.370Z,9.30
